createdAt,value
2022-10-30T00:03:32.923Z,27.27
2022-10-30T00:06:01.237Z,18.60
2022-10-30T00:08:29.104Z,18.02
2022-10-30T00:10:57.000Z,20.02
2022-10-30T00:13:26.204Z,13.13
2022-10-30T00:18:42.318Z,17.20
2022-10-30T00:21:12.128Z,15.95
2022-10-30T00:23:41.124Z,13.18
2022-10-30T00:26:09.302Z,21.63
2022-10-30T00:28:39.658Z,19.25
2022-10-30T00:31:07.624Z,11.82
2022-10-30T00:33:35.613Z,26.13
2022-10-30T00:38:49.321Z,26.77
2022-10-30T00:41:18.815Z,17.23
2022-10-30T00:43:48.405Z,15.00
2022-10-30T00:46:19.974Z,15.48
2022-10-30T00:48:56.634Z,22.02
2022-10-30T00:51:25.175Z,14.07
2022-10-30T00:53:54.843Z,20.10
2022-10-30T00:56:24.178Z,13.65
2022-10-30T00:58:58.480Z,18.55
2022-10-30T01:04:16.984Z,14.68
2022-10-30T01:06:48.728Z,24.48
2022-10-30T01:09:17.296Z,18.98
2022-10-30T01:11:45.227Z,19.67
2022-10-30T01:14:18.230Z,19.17
2022-10-30T01:16:58.998Z,21.15
2022-10-30T01:22:37.544Z,16.05
2022-10-30T01:25:15.865Z,19.58
2022-10-30T01:27:57.073Z,20.30
2022-10-30T01:30:41.163Z,23.67
2022-10-30T01:36:18.048Z,18.08
2022-10-30T01:38:50.279Z,22.02
2022-10-30T01:41:18.382Z,21.25
2022-10-30T01:43:49.594Z,14.65
2022-10-30T01:46:32.918Z,21.40
2022-10-30T01:49:17.571Z,23.02
2022-10-30T01:51:56.482Z,17.65
2022-10-30T01:57:28.895Z,16.50
2022-10-30T02:00:01.625Z,19.13
2022-10-30T02:02:31.526Z,20.77
2022-10-30T02:07:45.495Z,16.13
2022-10-30T02:10:14.037Z,21.15
2022-10-30T02:15:28.089Z,18.70
2022-10-30T02:17:57.853Z,16.25
2022-10-30T02:20:27.337Z,22.27
2022-10-30T02:22:59.097Z,20.63
2022-10-30T02:25:27.689Z,22.50
2022-10-30T02:27:55.914Z,17.17
2022-10-30T02:33:09.457Z,19.88
2022-10-30T02:38:24.282Z,19.10
2022-10-30T02:40:52.190Z,17.60
2022-10-30T02:43:20.139Z,17.88
2022-10-30T02:45:51.566Z,16.58
2022-10-30T02:51:07.056Z,20.33
2022-10-30T02:53:35.411Z,18.15
2022-10-30T02:58:52.875Z,18.15
2022-10-30T03:01:21.943Z,18.35
2022-10-30T03:03:49.896Z,15.77
2022-10-30T03:06:19.352Z,21.67
2022-10-30T03:08:47.230Z,18.52
2022-10-30T03:11:17.006Z,20.98
2022-10-30T03:13:46.157Z,24.00
2022-10-30T03:16:16.578Z,24.25
2022-10-30T03:18:44.463Z,14.77
2022-10-30T03:24:02.932Z,21.35
2022-10-30T03:26:30.899Z,18.27
2022-10-30T03:31:44.494Z,23.05
2022-10-30T03:34:12.701Z,19.92
2022-10-30T03:42:12.539Z,23.27
2022-10-30T03:44:40.471Z,20.48
2022-10-30T03:47:08.441Z,20.42
2022-10-30T03:49:36.410Z,25.10
2022-10-30T03:52:04.390Z,15.95
2022-10-30T03:54:33.744Z,22.40
2022-10-30T03:57:01.870Z,18.35
2022-10-30T03:59:29.737Z,17.85
2022-10-30T04:01:57.911Z,23.20
2022-10-30T04:04:25.945Z,22.27
2022-10-30T04:09:40.807Z,22.48
2022-10-30T04:14:55.482Z,29.40
2022-10-30T04:17:23.370Z,16.05
2022-10-30T04:19:51.306Z,19.23
2022-10-30T04:22:19.478Z,22.25
2022-10-30T04:24:49.281Z,21.08
2022-10-30T04:27:17.438Z,19.98
2022-10-30T04:29:45.464Z,15.23
2022-10-30T04:32:13.791Z,20.20
2022-10-30T04:37:27.180Z,21.00
2022-10-30T04:39:56.612Z,22.95
2022-10-30T04:42:24.831Z,20.05
2022-10-30T04:44:52.740Z,14.75
2022-10-30T04:47:20.721Z,18.63
2022-10-30T04:49:48.632Z,18.08
2022-10-30T04:55:03.875Z,23.17
2022-10-30T04:57:32.294Z,26.10
2022-10-30T05:00:00.157Z,16.20
2022-10-30T05:02:28.263Z,17.52
2022-10-30T05:04:56.332Z,24.77
2022-10-30T05:07:24.216Z,26.67
2022-10-30T05:09:52.127Z,27.83
2022-10-30T05:15:08.728Z,26.10
2022-10-30T05:17:36.631Z,22.20
2022-10-30T05:20:05.159Z,27.65
2022-10-30T05:22:33.352Z,23.58
2022-10-30T05:25:01.510Z,23.58
2022-10-30T05:27:30.872Z,17.90
2022-10-30T05:29:58.761Z,22.77
2022-10-30T05:35:12.191Z,19.73
2022-10-30T05:37:40.189Z,19.25
2022-10-30T05:40:09.126Z,20.23
2022-10-30T05:42:38.616Z,16.13
2022-10-30T05:45:07.699Z,19.38
2022-10-30T05:50:21.542Z,21.52
2022-10-30T05:52:49.501Z,29.10
2022-10-30T05:55:17.523Z,18.73
2022-10-30T05:57:46.765Z,18.92
2022-10-30T06:00:15.963Z,21.80
2022-10-30T06:02:44.235Z,19.83
2022-10-30T06:05:12.220Z,28.30
2022-10-30T06:07:40.270Z,20.40
2022-10-30T06:12:56.670Z,22.85
2022-10-30T06:18:10.491Z,22.65
2022-10-30T06:20:38.501Z,20.83
2022-10-30T06:23:08.687Z,20.80
2022-10-30T06:25:41.381Z,23.05
2022-10-30T06:30:56.542Z,28.75
2022-10-30T06:36:10.151Z,34.63
2022-10-30T06:38:38.205Z,25.05
2022-10-30T06:41:06.455Z,25.30
2022-10-30T06:46:21.478Z,30.80
2022-10-30T06:48:49.550Z,32.60
2022-10-30T06:54:03.621Z,28.20
2022-10-30T06:59:18.243Z,27.90
2022-10-30T07:01:46.212Z,34.10
2022-10-30T07:04:14.114Z,36.75
2022-10-30T07:06:41.989Z,29.63
2022-10-30T07:09:10.297Z,29.27
2022-10-30T07:11:40.338Z,22.95
2022-10-30T07:14:08.291Z,23.48
2022-10-30T07:16:38.346Z,31.08
2022-10-30T07:19:07.201Z,29.27
2022-10-30T07:21:35.207Z,24.80
2022-10-30T07:24:03.549Z,24.25
2022-10-30T07:26:31.475Z,35.80
2022-10-30T07:28:59.549Z,29.63
2022-10-30T07:31:41.514Z,26.88
2022-10-30T07:34:13.575Z,26.27
2022-10-30T07:36:41.809Z,21.05
2022-10-30T07:39:09.710Z,26.92
2022-10-30T07:44:22.780Z,26.55
2022-10-30T07:46:50.940Z,29.90
2022-10-30T07:49:20.239Z,22.02
2022-10-30T07:51:48.212Z,21.23
2022-10-30T07:57:01.915Z,23.15
2022-10-30T07:59:30.384Z,32.10
2022-10-30T08:01:58.392Z,22.45
2022-10-30T08:04:27.855Z,30.13
2022-10-30T08:06:55.927Z,23.15
2022-10-30T08:09:24.168Z,31.90
2022-10-30T08:11:52.078Z,26.55
2022-10-30T08:17:07.676Z,30.90
2022-10-30T08:19:37.039Z,26.73
2022-10-30T08:22:05.042Z,37.13
2022-10-30T08:24:33.301Z,29.58
2022-10-30T08:27:01.201Z,34.33
2022-10-30T08:29:29.315Z,35.20
2022-10-30T08:31:57.781Z,30.17
2022-10-30T08:34:26.652Z,32.33
2022-10-30T08:36:55.897Z,27.60
2022-10-30T08:39:24.194Z,26.45
2022-10-30T08:41:52.459Z,29.35
2022-10-30T08:44:20.418Z,27.38
2022-10-30T08:46:48.713Z,27.70
2022-10-30T08:49:16.657Z,31.80
2022-10-30T08:51:46.095Z,26.20
2022-10-30T08:54:15.698Z,27.50
2022-10-30T08:56:43.669Z,30.77
2022-10-30T09:04:42.557Z,27.75
2022-10-30T09:07:13.053Z,28.77
2022-10-30T09:09:42.798Z,31.60
2022-10-30T09:12:10.810Z,28.13
2022-10-30T09:14:38.998Z,23.48
2022-10-30T09:17:07.046Z,27.90
2022-10-30T09:19:35.271Z,30.80
2022-10-30T09:22:03.767Z,27.58
2022-10-30T09:27:18.699Z,19.95
2022-10-30T09:29:46.740Z,24.73
2022-10-30T09:32:14.677Z,24.10
2022-10-30T09:34:42.834Z,33.70
2022-10-30T09:37:12.340Z,24.55
2022-10-30T09:42:50.876Z,29.42
2022-10-30T09:45:43.902Z,27.02
2022-10-30T09:48:35.760Z,25.60
2022-10-30T09:51:14.782Z,28.13
2022-10-30T09:53:53.773Z,27.38
2022-10-30T09:56:27.827Z,36.53
2022-10-30T09:59:08.983Z,25.27
2022-10-30T10:01:43.269Z,27.92
2022-10-30T10:07:17.347Z,21.88
2022-10-30T10:09:46.130Z,25.88
2022-10-30T10:12:20.015Z,28.92
2022-10-30T10:14:50.017Z,28.38
2022-10-30T10:23:20.285Z,24.25
2022-10-30T10:25:54.173Z,34.33
2022-10-30T10:28:45.587Z,28.02
2022-10-30T10:31:25.588Z,25.40
2022-10-30T10:34:19.698Z,30.80
2022-10-30T10:45:23.076Z,25.00
2022-10-30T10:48:24.426Z,19.45
2022-10-30T10:50:58.104Z,23.52
2022-10-30T10:56:17.991Z,26.00
2022-10-30T10:58:52.599Z,22.75
2022-10-30T11:01:29.218Z,22.10
2022-10-30T11:06:53.382Z,24.25
2022-10-30T11:12:08.549Z,25.15
2022-10-30T11:14:38.615Z,24.38
2022-10-30T11:17:16.972Z,29.88
2022-10-30T11:19:51.699Z,18.92
2022-10-30T11:22:25.348Z,22.15
2022-10-30T11:27:38.795Z,22.25
2022-10-30T11:32:56.893Z,27.80
2022-10-30T11:35:27.593Z,22.80
2022-10-30T11:38:14.154Z,32.60
2022-10-30T11:40:49.286Z,32.63
2022-10-30T11:43:21.762Z,27.70
2022-10-30T11:48:40.141Z,111.78
2022-10-30T11:51:09.681Z,62.50
2022-10-30T11:53:41.584Z,45.08
2022-10-30T11:56:16.439Z,32.25
2022-10-30T11:58:47.124Z,27.77
2022-10-30T12:01:21.012Z,23.70
2022-10-30T12:03:49.316Z,28.42
2022-10-30T12:06:22.208Z,27.25
2022-10-30T12:14:34.754Z,32.25
2022-10-30T12:17:02.774Z,26.13
2022-10-30T12:22:30.243Z,32.33
2022-10-30T12:24:59.367Z,27.42
2022-10-30T12:27:27.807Z,24.90
2022-10-30T12:30:08.857Z,22.60
2022-10-30T12:35:45.420Z,29.85
2022-10-30T12:38:21.871Z,23.88
2022-10-30T12:41:01.927Z,29.15
2022-10-30T12:43:30.153Z,24.50
2022-10-30T12:46:07.772Z,23.17
2022-10-30T12:51:36.702Z,28.65
2022-10-30T12:57:07.137Z,28.13
2022-10-30T12:59:45.695Z,25.40
2022-10-30T13:02:22.160Z,16.48
2022-10-30T13:04:55.583Z,24.08
2022-10-30T13:07:31.354Z,22.17
2022-10-30T13:10:13.159Z,25.30
2022-10-30T13:12:46.379Z,17.63
2022-10-30T13:15:19.691Z,29.08
2022-10-30T13:20:34.477Z,19.63
2022-10-30T13:23:07.188Z,19.67
2022-10-30T13:25:44.223Z,30.42
2022-10-30T13:28:22.011Z,23.77
2022-10-30T13:31:00.687Z,26.33
2022-10-30T13:33:34.376Z,16.85
2022-10-30T13:36:10.198Z,21.55
2022-10-30T13:38:47.068Z,38.00
2022-10-30T13:41:28.624Z,22.92
2022-10-30T13:44:05.994Z,25.33
2022-10-30T13:46:57.947Z,24.88
2022-10-30T13:55:00.322Z,23.55
2022-10-30T13:57:34.977Z,22.58
2022-10-30T14:03:13.851Z,19.25
2022-10-30T14:05:49.205Z,29.30
2022-10-30T14:11:14.615Z,25.60
2022-10-30T14:13:57.185Z,27.58
2022-10-30T14:16:46.690Z,28.35
2022-10-30T14:19:16.395Z,25.48
2022-10-30T14:21:54.744Z,31.35
2022-10-30T14:27:12.320Z,33.28
2022-10-30T14:30:00.852Z,27.15
2022-10-30T14:32:42.495Z,23.70
2022-10-30T14:35:35.465Z,31.17
2022-10-30T14:38:37.033Z,31.25
2022-10-30T14:44:44.221Z,31.60
2022-10-30T14:47:47.431Z,24.77
2022-10-30T14:50:23.155Z,29.80
2022-10-30T14:53:06.041Z,32.63
2022-10-30T14:55:37.299Z,30.85
2022-10-30T14:58:22.412Z,32.88
2022-10-30T15:00:51.262Z,36.20
2022-10-30T15:03:37.552Z,40.08
2022-10-30T15:06:14.956Z,33.45
2022-10-30T15:09:07.286Z,29.90
2022-10-30T15:14:54.904Z,29.83
2022-10-30T15:20:20.871Z,34.08
2022-10-30T15:22:52.801Z,29.55
2022-10-30T15:25:23.312Z,26.88
2022-10-30T15:27:55.108Z,27.70
2022-10-30T15:30:25.014Z,26.20
2022-10-30T15:32:53.544Z,30.10
2022-10-30T15:35:26.044Z,33.20
2022-10-30T15:38:01.970Z,40.22
2022-10-30T15:40:30.972Z,38.95
2022-10-30T15:43:01.730Z,29.35
2022-10-30T15:45:35.316Z,31.38
2022-10-30T15:48:08.399Z,39.38
2022-10-30T15:50:42.342Z,28.17
2022-10-30T15:53:19.068Z,30.17
2022-10-30T15:55:47.606Z,32.38
2022-10-30T16:01:04.778Z,33.50
2022-10-30T16:03:32.888Z,25.60
2022-10-30T16:06:19.044Z,27.83
2022-10-30T16:11:34.400Z,24.70
2022-10-30T16:14:08.786Z,26.00
2022-10-30T16:16:36.873Z,26.92
2022-10-30T16:19:06.342Z,20.67
2022-10-30T16:21:37.157Z,30.42
2022-10-30T16:24:05.977Z,19.60
2022-10-30T16:26:35.994Z,26.63
2022-10-30T16:29:17.167Z,19.40
2022-10-30T16:31:49.869Z,20.65
2022-10-30T16:34:23.874Z,20.40
2022-10-30T16:42:27.495Z,24.08
2022-10-30T16:45:35.888Z,24.63
2022-10-30T16:51:01.909Z,22.92
2022-10-30T16:56:24.030Z,21.90
2022-10-30T16:58:53.183Z,22.88
2022-10-30T17:01:27.009Z,21.88
2022-10-30T17:06:43.310Z,25.90
2022-10-30T17:09:25.941Z,25.58
2022-10-30T17:12:11.590Z,28.80
2022-10-30T17:14:47.569Z,17.63
2022-10-30T17:17:33.599Z,13.88
2022-10-30T17:20:14.454Z,22.35
2022-10-30T17:22:42.622Z,17.85
2022-10-30T17:25:32.172Z,29.98
2022-10-30T17:28:00.220Z,21.42
2022-10-30T17:30:38.099Z,19.98
2022-10-30T17:33:25.312Z,20.60
2022-10-30T17:38:26.644Z,16.10
2022-10-30T17:40:55.945Z,10.25
2022-10-30T17:46:19.221Z,13.38
2022-10-30T17:48:48.931Z,18.88
2022-10-30T17:51:17.951Z,17.45
2022-10-30T17:53:47.936Z,13.80
2022-10-30T17:56:20.429Z,18.15
2022-10-30T17:58:48.444Z,11.20
2022-10-30T18:01:19.323Z,15.70
2022-10-30T18:03:47.305Z,23.42
2022-10-30T18:06:18.194Z,15.40
2022-10-30T18:11:33.465Z,14.95
2022-10-30T18:14:02.129Z,18.70
2022-10-30T18:16:30.483Z,20.50
2022-10-30T18:18:58.795Z,17.83
2022-10-30T18:21:28.734Z,17.48
2022-10-30T18:26:43.719Z,17.70
2022-10-30T18:31:58.289Z,16.08
2022-10-30T18:34:26.150Z,15.93
2022-10-30T18:36:54.063Z,12.38
2022-10-30T18:42:10.603Z,15.00
2022-10-30T18:44:38.541Z,14.23
2022-10-30T18:47:10.371Z,13.18
2022-10-30T18:49:38.535Z,15.27
2022-10-30T18:52:06.455Z,21.08
2022-10-30T18:54:34.323Z,11.57
2022-10-30T18:57:02.338Z,14.25
2022-10-30T18:59:31.946Z,21.20
2022-10-30T19:01:59.981Z,23.92
2022-10-30T19:07:13.448Z,14.57
2022-10-30T19:09:41.850Z,18.88
2022-10-30T19:12:11.617Z,14.73
2022-10-30T19:14:40.937Z,15.32
2022-10-30T19:17:08.949Z,18.98
2022-10-30T19:19:37.041Z,15.82
2022-10-30T19:22:05.064Z,22.33
2022-10-30T19:27:18.566Z,17.23
2022-10-30T19:29:47.780Z,19.85
2022-10-30T19:32:15.751Z,15.05
2022-10-30T19:34:45.920Z,18.08
2022-10-30T19:37:13.826Z,13.57
2022-10-30T19:42:27.547Z,15.00
2022-10-30T19:44:56.848Z,20.90
2022-10-30T19:47:24.713Z,16.13
2022-10-30T19:49:52.925Z,17.30
2022-10-30T19:52:22.202Z,22.63
2022-10-30T19:54:53.374Z,18.25
2022-10-30T19:57:21.866Z,15.05
2022-10-30T19:59:49.977Z,13.85
2022-10-30T20:02:19.456Z,16.13
2022-10-30T20:04:47.369Z,14.05
2022-10-30T20:10:01.595Z,9.25
2022-10-30T20:12:29.636Z,11.38
2022-10-30T20:14:57.675Z,13.45
2022-10-30T20:17:27.127Z,14.75
2022-10-30T20:19:55.004Z,9.20
2022-10-30T20:22:28.359Z,12.63
2022-10-30T20:24:56.524Z,12.77
2022-10-30T20:27:24.610Z,9.15
2022-10-30T20:29:52.542Z,14.13
2022-10-30T20:35:10.442Z,15.10
2022-10-30T20:37:39.191Z,10.93
2022-10-30T20:40:13.654Z,19.65
2022-10-30T20:45:29.133Z,6.90
2022-10-30T20:47:57.349Z,12.55
2022-10-30T20:50:26.828Z,9.07
2022-10-30T20:52:54.869Z,13.18
2022-10-30T20:55:23.000Z,12.40
2022-10-30T21:06:09.951Z,12.05
2022-10-30T21:08:37.990Z,11.50
2022-10-30T21:13:56.417Z,15.05
2022-10-30T21:19:10.017Z,14.75
2022-10-30T21:21:39.270Z,11.52
2022-10-30T21:29:38.961Z,11.77
2022-10-30T21:34:52.615Z,11.10
2022-10-30T21:37:23.655Z,9.25
2022-10-30T21:39:51.636Z,10.80
2022-10-30T21:42:19.554Z,14.82
2022-10-30T21:47:33.528Z,10.90
2022-10-30T21:52:48.457Z,10.48
2022-10-30T21:55:16.406Z,13.95
2022-10-30T21:57:44.269Z,12.80
2022-10-30T22:00:13.671Z,10.00
2022-10-30T22:02:42.152Z,9.60
2022-10-30T22:07:58.188Z,12.52
2022-10-30T22:10:26.351Z,13.40
2022-10-30T22:12:54.258Z,11.35
2022-10-30T22:15:22.179Z,10.60
2022-10-30T22:17:50.065Z,11.80
2022-10-30T22:20:18.480Z,13.00
2022-10-30T22:22:46.524Z,19.55
2022-10-30T22:25:15.969Z,16.70
2022-10-30T22:27:43.901Z,15.02
2022-10-30T22:30:12.725Z,11.27
2022-10-30T22:35:26.450Z,15.00
2022-10-30T22:37:54.319Z,15.23
2022-10-30T22:40:23.613Z,15.32
2022-10-30T22:42:51.443Z,15.55
2022-10-30T22:48:04.979Z,13.82
2022-10-30T22:53:18.305Z,12.02
2022-10-30T22:55:47.584Z,12.38
2022-10-30T22:58:15.556Z,19.27
2022-10-30T23:00:43.507Z,15.98
2022-10-30T23:03:11.372Z,11.95
2022-10-30T23:05:39.392Z,16.95
2022-10-30T23:08:07.300Z,16.17
2022-10-30T23:10:35.208Z,16.55
2022-10-30T23:13:04.411Z,17.40
2022-10-30T23:15:32.394Z,16.67
2022-10-30T23:18:00.633Z,15.52
2022-10-30T23:20:29.034Z,16.75
2022-10-30T23:22:56.891Z,17.52
2022-10-30T23:25:24.815Z,20.42
2022-10-30T23:27:53.994Z,18.65
2022-10-30T23:30:23.363Z,12.88
2022-10-30T23:32:51.440Z,14.45
2022-10-30T23:35:19.379Z,13.77
2022-10-30T23:37:47.361Z,19.33
2022-10-30T23:40:15.400Z,15.85
2022-10-30T23:42:43.294Z,18.75
2022-10-30T23:45:11.193Z,18.98
2022-10-30T23:47:42.708Z,16.95
2022-10-30T23:50:12.299Z,16.60
2022-10-30T23:52:40.230Z,16.38
2022-10-30T23:55:09.347Z,16.10
2022-10-30T23:57:37.395Z,12.35
